地図

経路データ

SID SEASON NUMBER BASIN SUBBASIN NAME ISO_TIME NATURE LAT LON WMO_WIND WMO_PRES WMO_AGENCY TRACK_TYPE DIST2LAND LANDFALL IFLAG USA_AGENCY USA_ATCF_ID USA_LAT USA_LON USA_RECORD USA_STATUS USA_WIND USA_PRES USA_SSHS USA_R34_NE USA_R34_SE USA_R34_SW USA_R34_NW USA_R50_NE USA_R50_SE USA_R50_SW USA_R50_NW USA_R64_NE USA_R64_SE USA_R64_SW USA_R64_NW USA_POCI USA_ROCI USA_RMW USA_EYE TOKYO_LAT TOKYO_LON TOKYO_GRADE TOKYO_WIND TOKYO_PRES TOKYO_R50_DIR TOKYO_R50_LONG TOKYO_R50_SHORT TOKYO_R30_DIR TOKYO_R30_LONG TOKYO_R30_SHORT TOKYO_LAND CMA_LAT CMA_LON CMA_CAT CMA_WIND CMA_PRES HKO_LAT HKO_LON HKO_CAT HKO_WIND HKO_PRES NEWDELHI_LAT NEWDELHI_LON NEWDELHI_GRADE NEWDELHI_WIND NEWDELHI_PRES NEWDELHI_CI NEWDELHI_DP NEWDELHI_POCI REUNION_LAT REUNION_LON REUNION_TYPE REUNION_WIND REUNION_PRES REUNION_TNUM REUNION_CI REUNION_RMW REUNION_R34_NE REUNION_R34_SE REUNION_R34_SW REUNION_R34_NW REUNION_R50_NE REUNION_R50_SE REUNION_R50_SW REUNION_R50_NW REUNION_R64_NE REUNION_R64_SE REUNION_R64_SW REUNION_R64_NW BOM_LAT BOM_LON BOM_TYPE BOM_WIND BOM_PRES BOM_TNUM BOM_CI BOM_RMW BOM_R34_NE BOM_R34_SE BOM_R34_SW BOM_R34_NW BOM_R50_NE BOM_R50_SE BOM_R50_SW BOM_R50_NW BOM_R64_NE BOM_R64_SE BOM_R64_SW BOM_R64_NW BOM_ROCI BOM_POCI BOM_EYE BOM_POS_METHOD BOM_PRES_METHOD NADI_LAT NADI_LON NADI_CAT NADI_WIND NADI_PRES WELLINGTON_LAT WELLINGTON_LON WELLINGTON_WIND WELLINGTON_PRES DS824_LAT DS824_LON DS824_STAGE DS824_WIND DS824_PRES TD9636_LAT TD9636_LON TD9636_STAGE TD9636_WIND TD9636_PRES TD9635_LAT TD9635_LON TD9635_WIND TD9635_PRES TD9635_ROCI NEUMANN_LAT NEUMANN_LON NEUMANN_CLASS NEUMANN_WIND NEUMANN_PRES MLC_LAT MLC_LON MLC_CLASS MLC_WIND MLC_PRES USA_GUST BOM_GUST BOM_GUST_PER REUNION_GUST REUNION_GUST_PER USA_SEAHGT USA_SEARAD_NE USA_SEARAD_SE USA_SEARAD_SW USA_SEARAD_NW STORM_SPEED STORM_DIR
1909030S14153 1909 6 SP EA NOT_NAMED 1909-01-29 23:00:00 NR -14.0000 153.000 1000 bom main 455 455 ______O___O___ -1 -14.0000 153.000 1000 -14.0000 153.000 7 2 0
1909030S14153 1909 6 SP EA NOT_NAMED 1909-01-30 00:00:00 TS -14.0209 153.021 main 455 455 ______P__OP___ -1 -14.0234 153.024 -14.0000 153.000 TC 30 1000 -14.0289 153.028 7 2 136
1909030S14153 1909 6 SP EA NOT_NAMED 1909-01-30 03:00:00 TS -14.0905 153.090 main 470 470 ______P__PP___ -1 -14.0932 153.097 -14.0516 153.048 TC -14.1139 153.112 7 2 136
1909030S14153 1909 6 SP EA NOT_NAMED 1909-01-30 06:00:00 TS -14.1575 153.157 main 486 486 ______P__PP___ -1 -14.1621 153.168 -14.1042 153.097 TC -14.1930 153.190 7 2 137
1909030S14153 1909 6 SP EA NOT_NAMED 1909-01-30 09:00:00 TS -14.2167 153.215 main 486 486 ______P__PP___ -1 -14.2292 153.237 -14.1589 153.149 TC -14.2619 153.260 7 2 136
1909030S14153 1909 6 SP EA NOT_NAMED 1909-01-30 11:00:00 TS -14.2566 153.256 main 501 501 ______P__PO___ -1 -14.2728 153.282 -14.1971 153.186 TC -14.3000 153.300 7 2 138
1909030S14153 1909 6 SP EA NOT_NAMED 1909-01-30 12:00:00 TS -14.2757 153.275 main 501 501 ______P__PP___ -1 -14.2941 153.303 -14.2168 153.205 TC -14.3163 153.318 7 2 135
1909030S14153 1909 6 SP EA NOT_NAMED 1909-01-30 15:00:00 TS -14.3309 153.332 main 501 501 ______P__PP___ -1 -14.3558 153.365 -14.2788 153.267 TC -14.3582 153.364 7 2 134
1909030S14153 1909 6 SP EA NOT_NAMED 1909-01-30 18:00:00 TS -14.3863 153.388 main 516 516 ______P__PP___ -1 -14.4137 153.421 -14.3459 153.335 TC -14.3993 153.407 7 2 136
1909030S14153 1909 6 SP EA NOT_NAMED 1909-01-30 21:00:00 TS -14.4487 153.450 main 523 523 ______P__PP___ -1 -14.4672 153.471 -14.4193 153.413 TC -14.4521 153.458 7 2 137
1909030S14153 1909 6 SP EA NOT_NAMED 1909-01-30 23:00:00 TS -14.4944 153.494 999 bom main 532 532 ______O__PO___ -1 -14.5000 153.500 999 -14.4722 153.470 TC -14.5000 153.500 7 2 140
1909030S14153 1909 6 SP EA NOT_NAMED 1909-01-31 00:00:00 TS -14.5226 153.519 main 532 532 ______P__OP___ -1 -14.5155 153.513 -14.5000 153.500 TC 30 999 -14.5353 153.530 7 2 139
1909030S14153 1909 6 SP EA NOT_NAMED 1909-01-31 03:00:00 NR -14.6099 153.592 main 547 547 ______P__PP___ -1 -14.5604 153.550 -14.5890 153.598 TC -14.6593 153.634 7 2 142
1909030S14153 1909 6 SP EA NOT_NAMED 1909-01-31 06:00:00 NR -14.7017 153.665 main 562 562 ______P__PP___ -1 -14.6076 153.585 -14.6876 153.707 TC -14.7958 153.744 7 2 143
1909030S14153 1909 6 SP EA NOT_NAMED 1909-01-31 09:00:00 NR -14.7944 153.735 main 571 571 ______P__PP___ -1 -14.6628 153.624 -14.7970 153.825 TC -14.9260 153.845 7 2 143
1909030S14153 1909 6 SP EA NOT_NAMED 1909-01-31 11:00:00 NR -14.8535 153.777 main 587 587 ______P__PO___ -1 -14.7069 153.654 -14.8766 153.908 TC -15.0000 153.900 7 2 145
1909030S14153 1909 6 SP EA NOT_NAMED 1909-01-31 12:00:00 NR -14.8738 153.790 main 587 587 ______P__PP___ -1 -14.7319 153.672 -14.9185 153.951 TC -15.0156 153.909 7 1 151
1909030S14153 1909 6 SP EA NOT_NAMED 1909-01-31 15:00:00 NR -14.9311 153.823 main 587 587 ______P__PP___ -1 -14.8209 153.733 -15.0535 154.085 TC -15.0413 153.914 7 1 152
1909030S14153 1909 6 SP EA NOT_NAMED 1909-01-31 18:00:00 NR -15.0001 153.864 main 602 602 ______P__PP___ -1 -14.9357 153.812 -15.2033 154.225 TC -15.0646 153.915 7 2 148
1909030S14153 1909 6 SP EA NOT_NAMED 1909-01-31 21:00:00 NR -15.1025 153.931 main 611 611 ______P__PP___ -1 -15.0820 153.915 -15.3690 154.372 TC -15.1230 153.946 7 3 146
1909030S14153 1909 6 SP EA NOT_NAMED 1909-01-31 23:00:00 NR -15.2000 154.000 996 bom main 627 627 ______O__PO___ -1 -15.2000 154.000 996 -15.4891 154.472 TC -15.2000 154.000 7 4 143
1909030S14153 1909 6 SP EA NOT_NAMED 1909-02-01 00:00:00 NR -15.2601 154.052 main 642 642 ______P__PP___ -1 -15.2612 154.055 -15.5521 154.523 TC -15.2591 154.048 7 5 140
1909030S14153 1909 6 SP EA NOT_NAMED 1909-02-01 03:00:00 NR -15.4759 154.240 main 666 666 ______P__PP___ -1 -15.4669 154.244 -15.7539 154.678 TC -15.4848 154.237 7 6 140
1909030S14153 1909 6 SP EA NOT_NAMED 1909-02-01 06:00:00 NR -15.7356 154.465 main 703 703 ______P__PP___ -1 -15.7047 154.458 -15.9756 154.836 TC -15.7664 154.472 7 7 141
1909030S14153 1909 6 SP EA NOT_NAMED 1909-02-01 09:00:00 NR -16.0276 154.710 main 743 743 ______P__PP___ -1 -15.9734 154.692 -16.2186 154.997 TC -16.0817 154.729 7 8 142
1909030S14153 1909 6 SP EA NOT_NAMED 1909-02-01 11:00:00 NR -16.2345 154.877 main 774 774 ______P__PO___ -1 -16.1691 154.854 -16.3931 155.104 TC -16.3000 154.900 7 8 142
1909030S14153 1909 6 SP EA NOT_NAMED 1909-02-01 12:00:00 NR -16.3324 154.958 main 789 782 ______P__PP___ -1 -16.2717 154.936 -16.4842 155.158 TC -16.3930 154.980 7 8 142
1909030S14153 1909 6 SP EA NOT_NAMED 1909-02-01 15:00:00 NR -16.6390 155.203 main 791 778 ______P__PP___ -1 -16.5984 155.184 -16.7738 155.320 TC -16.6796 155.222 7 8 144
1909030S14153 1909 6 SP EA NOT_NAMED 1909-02-01 18:00:00 NR -16.9709 155.442 main 778 766 ______P__PP___ -1 -16.9524 155.427 -17.0888 155.482 TC -16.9894 155.457 7 8 148
1909030S14153 1909 6 SP EA NOT_NAMED 1909-02-01 21:00:00 NR -17.3354 155.665 main 773 756 ______P__PP___ -1 -17.3326 155.657 -17.4304 155.642 TC -17.3382 155.673 7 9 151
1909030S14153 1909 6 SP EA NOT_NAMED 1909-02-01 23:00:00 NR -17.6000 155.800 992 bom main 756 748 ______O__PO___ -1 -17.6000 155.800 992 -17.6736 155.748 TC -17.6000 155.800 7 9 157
1909030S14153 1909 6 SP EA NOT_NAMED 1909-02-02 00:00:00 TS -17.7478 155.847 main 748 724 ______P__OP___ -1 -17.7369 155.851 -17.8000 155.800 TC 45 992 -17.7456 155.854 7 9 163
1909030S14153 1909 6 SP EA NOT_NAMED 1909-02-02 03:00:00 TS -18.1968 155.985 main 724 703 ______P__PP___ -1 -18.1709 155.991 -18.1982 155.955 TC -18.2221 155.993 7 10 165
1909030S14153 1909 6 SP EA NOT_NAMED 1909-02-02 06:00:00 TS -18.6677 156.112 main 696 677 ______P__PP___ -1 -18.6335 156.116 -18.6222 156.108 TC -18.7361 156.111 7 10 166
1909030S14153 1909 6 SP EA NOT_NAMED 1909-02-02 09:00:00 TS -19.1481 156.238 main 677 667 ______P__PP___ -1 -19.1164 156.232 -19.0683 156.259 TC -19.2597 156.222 7 10 166
1909030S14153 1909 6 SP EA NOT_NAMED 1909-02-02 11:00:00 TS -19.4740 156.323 main 662 656 ______P__PO___ -1 -19.4458 156.309 -19.3761 156.358 TC -19.6000 156.300 7 10 166
1909030S14153 1909 6 SP EA NOT_NAMED 1909-02-02 12:00:00 TS -19.6345 156.366 main 663 619 ______P__PP___ -1 -19.6117 156.349 -19.5328 156.408 TC -19.7591 156.341 7 10 166
1909030S14153 1909 6 SP EA NOT_NAMED 1909-02-02 15:00:00 TS -20.1165 156.498 main 619 578 ______P__PP___ -1 -20.1110 156.473 -20.0120 156.556 TC -20.2264 156.466 7 10 165
1909030S14153 1909 6 SP EA NOT_NAMED 1909-02-02 18:00:00 TS -20.5957 156.640 main 578 555 ______P__PP___ -1 -20.6062 156.612 -20.5021 156.704 TC -20.6789 156.604 7 10 164
1909030S14153 1909 6 SP EA NOT_NAMED 1909-02-02 21:00:00 TS -21.0745 156.794 main 547 528 ______P__PP___ -1 -21.0890 156.775 -20.9993 156.852 TC -21.1165 156.769 7 10 162
1909030S14153 1909 6 SP EA NOT_NAMED 1909-02-02 23:00:00 TS -21.3866 156.910 990 bom main 528 520 ______O__PO___ -1 -21.4000 156.900 990 -21.3330 156.950 TC -21.4000 156.900 7 10 160
1909030S14153 1909 6 SP EA NOT_NAMED 1909-02-03 00:00:00 TS -21.5412 156.974 main 528 505 ______P__OP___ -1 -21.5514 156.968 -21.5000 157.000 TC 45 990 -21.5413 156.972 7 10 155
1909030S14153 1909 6 SP EA NOT_NAMED 1909-02-03 03:00:00 NR -21.9719 157.207 main 506 500 ______P___P___ -1 -21.9892 157.197 TC -21.9545 157.217 7 10 151
1909030S14153 1909 6 SP EA NOT_NAMED 1909-02-03 06:00:00 NR -22.3798 157.474 main 504 498 ______P___P___ -1 -22.4052 157.456 TC -22.3545 157.493 7 10 147
1909030S14153 1909 6 SP EA NOT_NAMED 1909-02-03 09:00:00 NR -22.7733 157.767 main 509 504 ______P___P___ -1 -22.8024 157.741 TC -22.7442 157.792 7 10 145
1909030S14153 1909 6 SP EA NOT_NAMED 1909-02-03 11:00:00 NR -23.0292 157.972 main 517 512 ______P___O___ -1 -23.0583 157.944 TC -23.0000 158.000 7 10 143
1909030S14153 1909 6 SP EA NOT_NAMED 1909-02-03 12:00:00 NR -23.1555 158.077 main 517 517 ______P___P___ -1 -23.1840 158.049 TC -23.1270 158.105 7 10 142
1909030S14153 1909 6 SP EA NOT_NAMED 1909-02-03 15:00:00 NR -23.5292 158.400 main 533 529 ______P___P___ -1 -23.5531 158.375 TC -23.5053 158.425 7 10 141
1909030S14153 1909 6 SP EA NOT_NAMED 1909-02-03 18:00:00 NR -23.8964 158.733 main 550 550 ______P___P___ -1 -23.9128 158.715 TC -23.8801 158.750 7 10 140
1909030S14153 1909 6 SP EA NOT_NAMED 1909-02-03 21:00:00 NR -24.2594 159.072 main 580 580 ______P___P___ -1 -24.2662 159.064 TC -24.2526 159.079 7 10 139
1909030S14153 1909 6 SP EA NOT_NAMED 1909-02-03 23:00:00 NR -24.5000 159.300 996 bom main 597 ______O___O___ -1 -24.5000 159.300 996 TC -24.5000 159.300 7 10 139

デジタル台風データ・検索

IBTrACS Databaseについて

本データベースは、米国NOAAが公開する1842年以降の世界の熱帯低気圧のベストトラックデータアーカイブInternational Best Track Archive for Climate Stewardship (IBTrACS)を、ウェブで閲覧しやすい形式に変換したものです。

最終更新日:2021-12-03